KAKQ/AKQ METAR and TAF weather

Enter ICAO airport designator
Station Type Date Time Source
KAKQ METAR 2024/05/28 21:54 UTC NOAA

KAKQ 282154Z AUTO VRB05KT 10SM FEW060 29/14 A2986 RMK AO2 SLP110 T02890144


Station Type Date Time Source
KAKQ Decoded METAR 2024/05/28 21:54 UTC NOAA

WAKEFIELD MUNICIPAL AIRPOR, VA, United States (KAKQ) 36-59N 077-00W 33M
May 28, 2024 - 05:54 PM EDT / 2024.05.28 2154 UTC
Wind: Variable at 6 MPH (5 KT):0
Visibility: 10 mile(s):0
Sky conditions: mostly clear
Temperature: 84.0 F (28.9 C)
Dew Point: 57.9 F (14.4 C)
Relative Humidity: 41%
Pressure (altimeter): 29.86 in. Hg (1011 hPa)
ob: KAKQ 282154Z AUTO VRB05KT 10SM FEW060 29/14 A2986 RMK AO2 SLP110 T02890144
cycle: 22

Station Type Date Time Source
KAKQ TAF UTC NOAA

Error!

Example: see airport list